createdAt,value
2018-08-06T00:04:52.145Z,41
2018-08-06T00:09:52.236Z,41
2018-08-06T00:14:52.312Z,41
2018-08-06T00:19:52.230Z,41
2018-08-06T00:24:52.202Z,41
2018-08-06T00:29:52.329Z,41
2018-08-06T00:34:52.431Z,41
2018-08-06T00:39:52.097Z,41
2018-08-06T00:44:52.168Z,41
2018-08-06T00:49:52.416Z,41
2018-08-06T00:54:52.240Z,41
2018-08-06T00:59:52.229Z,41
2018-08-06T01:04:52.383Z,41
2018-08-06T01:09:52.202Z,41
2018-08-06T01:14:52.350Z,41
2018-08-06T01:19:52.084Z,41
2018-08-06T01:24:52.308Z,42
2018-08-06T01:29:52.199Z,42
2018-08-06T01:34:52.237Z,42
2018-08-06T01:39:52.003Z,42
2018-08-06T01:44:52.244Z,42
2018-08-06T01:49:52.240Z,42
2018-08-06T01:54:52.240Z,42
2018-08-06T01:59:52.300Z,42
2018-08-06T02:04:52.137Z,42
2018-08-06T02:09:52.082Z,42
2018-08-06T02:14:52.259Z,43
2018-08-06T02:19:52.065Z,43
2018-08-06T02:24:52.085Z,43
2018-08-06T02:29:52.188Z,43
2018-08-06T02:34:52.192Z,43
2018-08-06T02:39:51.951Z,43
2018-08-06T02:44:52.047Z,43
2018-08-06T02:49:51.895Z,43
2018-08-06T02:54:52.078Z,43
2018-08-06T02:59:52.055Z,43
2018-08-06T03:04:51.902Z,43
2018-08-06T03:09:51.998Z,43
2018-08-06T03:14:51.971Z,43
2018-08-06T03:19:52.156Z,43
2018-08-06T03:24:52.004Z,44
2018-08-06T03:29:51.907Z,43
2018-08-06T03:34:51.845Z,43
2018-08-06T03:39:52.205Z,43
2018-08-06T03:44:52.048Z,43
2018-08-06T03:49:52.059Z,44
2018-08-06T03:54:51.839Z,44
2018-08-06T03:59:51.847Z,44
2018-08-06T04:04:51.879Z,44
2018-08-06T04:09:51.782Z,44
2018-08-06T04:14:52.124Z,44
2018-08-06T04:19:51.810Z,44
2018-08-06T04:24:51.816Z,44
2018-08-06T04:29:51.964Z,44
2018-08-06T04:34:51.697Z,44
2018-08-06T04:39:51.779Z,44
2018-08-06T04:44:51.911Z,44
2018-08-06T04:49:51.831Z,44
2018-08-06T04:54:51.829Z,44
2018-08-06T04:59:51.728Z,44
2018-08-06T05:04:51.886Z,44
2018-08-06T05:09:51.918Z,44
2018-08-06T05:14:51.719Z,44
2018-08-06T05:19:51.880Z,44
2018-08-06T05:24:51.690Z,44
2018-08-06T05:29:51.762Z,44
2018-08-06T05:34:51.691Z,44
2018-08-06T05:39:51.926Z,44
2018-08-06T05:44:51.641Z,44
2018-08-06T05:49:51.732Z,44
2018-08-06T05:54:51.664Z,44
2018-08-06T05:59:51.960Z,44
2018-08-06T06:04:51.905Z,43
2018-08-06T06:09:51.805Z,43
2018-08-06T06:14:51.643Z,43
2018-08-06T06:19:51.749Z,43
2018-08-06T06:24:51.725Z,43
2018-08-06T06:29:51.872Z,43
2018-08-06T06:34:51.956Z,43
2018-08-06T06:39:51.839Z,43
2018-08-06T06:44:51.712Z,43
2018-08-06T06:49:51.864Z,43
2018-08-06T06:54:51.541Z,43
2018-08-06T06:59:51.635Z,43
2018-08-06T07:04:51.515Z,43
2018-08-06T07:09:51.866Z,43
2018-08-06T07:14:51.497Z,43
2018-08-06T07:19:51.748Z,43
2018-08-06T07:24:51.727Z,43
2018-08-06T07:29:51.538Z,43
2018-08-06T07:34:51.683Z,38
2018-08-06T07:39:51.655Z,38
2018-08-06T07:44:51.604Z,38
2018-08-06T07:49:51.715Z,38
2018-08-06T07:54:51.743Z,37
2018-08-06T07:59:51.900Z,37
2018-08-06T08:04:51.787Z,37
2018-08-06T08:09:51.625Z,37
2018-08-06T08:14:51.617Z,37
2018-08-06T08:19:51.841Z,37
2018-08-06T08:24:51.422Z,37
2018-08-06T08:29:51.480Z,37
2018-08-06T08:34:51.550Z,37
2018-08-06T08:39:51.500Z,37
2018-08-06T08:44:51.399Z,37
2018-08-06T08:49:51.445Z,37
2018-08-06T08:54:51.724Z,37
2018-08-06T08:59:51.589Z,37
2018-08-06T09:04:51.383Z,37
2018-08-06T09:09:51.390Z,37
2018-08-06T09:14:51.390Z,37
2018-08-06T09:19:51.365Z,37
2018-08-06T09:24:52.686Z,37
2018-08-06T09:29:51.636Z,37
2018-08-06T09:34:51.352Z,37
2018-08-06T09:39:51.546Z,37
2018-08-06T09:44:51.390Z,37
2018-08-06T09:49:51.335Z,37
2018-08-06T09:54:51.330Z,37
2018-08-06T09:59:51.421Z,37
2018-08-06T10:04:51.421Z,37
2018-08-06T10:09:51.500Z,37
2018-08-06T10:14:51.334Z,37
2018-08-06T10:19:51.433Z,37
2018-08-06T10:24:51.351Z,37
2018-08-06T10:29:51.283Z,37
2018-08-06T10:34:51.245Z,37
2018-08-06T10:39:51.489Z,37
2018-08-06T10:44:51.445Z,37
2018-08-06T10:49:51.374Z,37
2018-08-06T10:54:51.279Z,37
2018-08-06T10:59:51.225Z,37
2018-08-06T11:04:51.178Z,37
2018-08-06T11:09:51.212Z,37
2018-08-06T11:14:51.185Z,37
2018-08-06T11:19:51.391Z,23
2018-08-06T11:24:51.362Z,23
2018-08-06T11:29:51.524Z,23
2018-08-06T11:34:51.274Z,23
2018-08-06T11:39:51.190Z,23
2018-08-06T11:44:51.253Z,22
2018-08-06T11:49:51.187Z,22
2018-08-06T11:54:51.235Z,22
2018-08-06T11:59:51.361Z,22
2018-08-06T12:04:51.386Z,22
2018-08-06T12:09:51.078Z,22
2018-08-06T12:14:51.229Z,22
2018-08-06T12:19:51.241Z,22
2018-08-06T12:24:51.050Z,22
2018-08-06T12:29:51.161Z,22
2018-08-06T12:34:52.225Z,22
2018-08-06T12:39:52.321Z,22
2018-08-06T12:44:54.611Z,22
2018-08-06T12:49:51.085Z,22
2018-08-06T12:54:51.037Z,22
2018-08-06T12:59:50.983Z,22
2018-08-06T13:04:51.065Z,22
2018-08-06T13:09:51.208Z,22
2018-08-06T13:14:51.078Z,22
2018-08-06T13:19:51.327Z,22
2018-08-06T13:24:50.989Z,22
2018-08-06T13:29:51.205Z,22
2018-08-06T13:34:51.217Z,22
2018-08-06T13:39:50.913Z,22
2018-08-06T13:44:51.274Z,19
2018-08-06T13:49:50.927Z,19
2018-08-06T13:54:51.115Z,19
2018-08-06T13:59:50.925Z,19
2018-08-06T14:04:51.160Z,19
2018-08-06T14:09:51.033Z,19
2018-08-06T14:14:51.116Z,19
2018-08-06T14:19:50.917Z,19
2018-08-06T14:24:51.140Z,19
2018-08-06T14:29:50.928Z,19
2018-08-06T14:34:51.184Z,19
2018-08-06T14:39:50.967Z,19
2018-08-06T14:44:51.138Z,19
2018-08-06T14:49:51.144Z,19
2018-08-06T14:54:51.106Z,19
2018-08-06T14:59:50.857Z,19
2018-08-06T15:04:50.813Z,19
2018-08-06T15:09:51.108Z,19
2018-08-06T15:14:51.051Z,19
2018-08-06T15:19:51.069Z,19
2018-08-06T15:24:50.783Z,19
2018-08-06T15:29:50.930Z,19
2018-08-06T15:34:50.890Z,19
2018-08-06T15:39:50.877Z,19
2018-08-06T15:44:51.014Z,19
2018-08-06T15:49:50.729Z,19
2018-08-06T15:54:50.889Z,19
2018-08-06T15:59:50.803Z,19
2018-08-06T16:04:50.839Z,19
2018-08-06T16:09:50.733Z,19
2018-08-06T16:14:50.921Z,19
2018-08-06T16:19:50.963Z,19
2018-08-06T16:24:50.929Z,19
2018-08-06T16:29:50.682Z,19
2018-08-06T16:34:51.035Z,19
2018-08-06T16:39:50.782Z,19
2018-08-06T16:44:50.937Z,19
2018-08-06T16:49:50.949Z,19
2018-08-06T16:54:50.894Z,19
2018-08-06T16:59:50.625Z,19
2018-08-06T17:04:50.960Z,19
2018-08-06T17:09:50.724Z,19
2018-08-06T17:14:50.803Z,19
2018-08-06T17:19:50.913Z,19
2018-08-06T17:24:50.750Z,19
2018-08-06T17:29:50.755Z,19
2018-08-06T17:34:50.874Z,19
2018-08-06T17:39:50.648Z,19
2018-08-06T17:44:50.793Z,19
2018-08-06T17:49:50.672Z,19
2018-08-06T17:54:50.730Z,19
2018-08-06T17:59:50.599Z,19
2018-08-06T18:04:50.720Z,21
2018-08-06T18:09:50.733Z,21
2018-08-06T18:14:50.853Z,21
2018-08-06T18:19:50.524Z,21
2018-08-06T18:24:50.826Z,21
2018-08-06T18:29:50.756Z,21
2018-08-06T18:34:50.769Z,21
2018-08-06T18:39:50.504Z,21
2018-08-06T18:44:50.794Z,21
2018-08-06T18:49:50.466Z,21
2018-08-06T18:54:50.821Z,21
2018-08-06T18:59:50.818Z,21
2018-08-06T19:04:50.477Z,21
2018-08-06T19:09:50.569Z,21
2018-08-06T19:14:50.739Z,21
2018-08-06T19:19:50.717Z,21
2018-08-06T19:24:50.517Z,21
2018-08-06T19:29:50.396Z,21
2018-08-06T19:34:50.780Z,21
2018-08-06T19:39:50.389Z,21
2018-08-06T19:44:50.490Z,21
2018-08-06T19:49:50.438Z,21
2018-08-06T19:54:50.708Z,21
2018-08-06T19:59:50.564Z,21
2018-08-06T20:04:50.553Z,21
2018-08-06T20:09:50.558Z,21
2018-08-06T20:14:50.606Z,21
2018-08-06T20:19:50.337Z,21
2018-08-06T20:24:50.388Z,21
2018-08-06T20:29:50.672Z,21
2018-08-06T20:34:50.337Z,21
2018-08-06T20:39:50.346Z,21
2018-08-06T20:44:50.452Z,21
2018-08-06T20:49:50.669Z,21
2018-08-06T20:54:50.596Z,21
2018-08-06T20:59:50.582Z,21
2018-08-06T21:04:50.639Z,21
2018-08-06T21:09:50.270Z,21
2018-08-06T21:14:50.498Z,21
2018-08-06T21:19:50.273Z,21
2018-08-06T21:24:50.405Z,21
2018-08-06T21:29:50.571Z,21
2018-08-06T21:34:50.275Z,21
2018-08-06T21:39:50.306Z,21
2018-08-06T21:44:50.379Z,21
2018-08-06T21:49:50.237Z,21
2018-08-06T21:54:50.416Z,21
2018-08-06T21:59:50.346Z,21
2018-08-06T22:04:50.369Z,21
2018-08-06T22:09:50.531Z,21
2018-08-06T22:14:50.153Z,21
2018-08-06T22:19:50.426Z,21
2018-08-06T22:24:50.171Z,21
2018-08-06T22:29:50.244Z,21
2018-08-06T22:34:50.163Z,21
2018-08-06T22:39:50.203Z,21
2018-08-06T22:44:50.141Z,21
2018-08-06T22:49:50.267Z,21
2018-08-06T22:54:50.448Z,21
2018-08-06T22:59:50.077Z,21
2018-08-06T23:04:50.157Z,21
2018-08-06T23:09:50.435Z,21
2018-08-06T23:14:50.086Z,21
2018-08-06T23:19:50.198Z,21
2018-08-06T23:24:50.333Z,21
2018-08-06T23:29:50.166Z,21
2018-08-06T23:34:50.171Z,21
2018-08-06T23:39:50.141Z,21
2018-08-06T23:44:50.165Z,21
2018-08-06T23:49:50.257Z,21
2018-08-06T23:54:50.196Z,21
2018-08-06T23:59:50.176Z,21
